Alden, Kansas
Current Conditions -  °F | °C
As of 4:52 AM on Friday 31 Oct 2014 (Local Time) from KHUT Reporting Station
Overcast Overcast  
Wind Chill: 39°   Ceiling: 2000
Heat Index: 45°   Visibility: 10mi
Dew Point: 35°   Wind: 13mph
Humidity: 68%   Direction: 350°N
Pressure: 30.4"   Gusts: 22mph
Location:  38.24°N, 98.31°W
Report Text: KHUT 310952Z AUTO 35011G19KT 10SM OVC020 07/02 A3040 RMK AO2 SLP285 T00720017
Loading
Personal Weather Stations






























Interactive Weather Map
Tropical Storm Tracking
New forecast layout! Learn more

10-Day Weather Forecast

Advertisements
Track Severe Weather on mobile